Time;durP1;ratioP1;P1;durP2;ratioP2;P2;SDS_P1;SDS_P2;PMS_P1;PMS_P2;Temp;Humidity;BMP_temperature;BMP_pressure;BME280_temperature;BME280_humidity;BME280_pressure;Samples;Min_cycle;Max_cycle;Signal;HPM_P1;HPM_P2
2021/11/20 00:01:44;;;;;;;18.63;8.07;;;3.80;99.90;;;;;;5019724;28;20494;-68
2021/11/20 00:04:10;;;;;;;19.60;8.75;;;3.80;99.90;;;;;;5022080;23;20141;-80
2021/11/20 00:06:40;;;;;;;20.40;8.30;;;3.80;99.90;;;;;;5017589;28;20400;-82
2021/11/20 00:09:08;;;;;;;21.77;8.90;;;3.80;99.90;;;;;;5019955;28;20060;-82
2021/11/20 00:11:37;;;;;;;31.48;7.72;;;3.80;99.90;;;;;;5038349;28;20021;-82
2021/11/20 00:14:05;;;;;;;28.13;10.18;;;3.80;99.90;;;;;;5036945;28;20044;-82
2021/11/20 00:16:31;;;;;;;29.48;9.07;;;3.80;99.90;;;;;;5031426;28;20035;-82
2021/11/20 00:18:59;;;;;;;17.60;7.07;;;3.80;99.90;;;;;;5017352;28;20488;-82
2021/11/20 00:21:33;;;;;;;15.47;7.33;;;3.80;99.90;;;;;;5015519;28;20033;-82
2021/11/20 00:24:01;;;;;;;19.85;7.75;;;3.80;99.90;;;;;;5016456;28;20615;-82
2021/11/20 00:26:33;;;;;;;20.25;8.25;;;3.80;99.90;;;;;;5030940;28;20038;-82
2021/11/20 00:31:31;;;;;;;23.95;9.05;;;3.80;99.90;;;;;;5013457;28;20575;-82
2021/11/20 00:33:58;;;;;;;21.95;8.43;;;3.80;99.90;;;;;;5022231;28;20018;-82
2021/11/20 00:36:24;;;;;;;21.23;8.68;;;3.80;99.90;;;;;;5031771;28;20041;-82
2021/11/20 00:38:51;;;;;;;19.27;8.30;;;3.80;99.90;;;;;;5020252;28;20029;-82
2021/11/20 00:41:29;;;;;;;20.80;7.30;;;3.80;99.90;;;;;;5023786;28;20032;-82
2021/11/20 00:43:55;;;;;;;23.20;9.55;;;3.90;99.90;;;;;;5025101;28;20040;-82
2021/11/20 00:46:23;;;;;;;21.63;8.23;;;3.90;99.90;;;;;;5021524;28;20021;-82
2021/11/20 00:48:49;;;;;;;16.65;7.13;;;3.90;99.90;;;;;;5023291;28;20035;-82
2021/11/20 00:51:17;;;;;;;17.30;7.10;;;3.90;99.90;;;;;;5021504;28;20030;-82
2021/11/20 00:53:44;;;;;;;16.80;7.10;;;3.90;99.90;;;;;;5025605;28;20026;-82
2021/11/20 00:56:12;;;;;;;19.38;7.05;;;3.90;99.90;;;;;;5019527;28;20116;-82
2021/11/20 00:58:38;;;;;;;15.25;6.57;;;3.90;99.90;;;;;;5023146;28;20029;-82
2021/11/20 01:01:07;;;;;;;14.68;6.68;;;3.90;99.90;;;;;;5021148;28;20437;-81
2021/11/20 01:03:33;;;;;;;16.55;7.18;;;3.90;99.90;;;;;;5026406;28;20103;-81
2021/11/20 01:06:00;;;;;;;14.70;6.10;;;3.90;99.90;;;;;;5039261;28;20033;-81
2021/11/20 01:08:29;;;;;;;17.30;6.85;;;3.90;99.90;;;;;;5018618;28;20033;-81
2021/11/20 01:10:59;;;;;;;19.55;7.20;;;3.90;99.90;;;;;;5018371;28;20026;-81
2021/11/20 01:13:25;;;;;;;16.23;6.75;;;4.00;99.90;;;;;;5028596;28;20026;-81
2021/11/20 01:15:55;;;;;;;18.90;8.10;;;4.00;99.90;;;;;;5023903;28;20492;-82
2021/11/20 01:18:23;;;;;;;16.85;6.47;;;4.00;99.90;;;;;;5023260;28;20116;-82
2021/11/20 01:20:50;;;;;;;15.27;6.50;;;4.00;99.90;;;;;;5028502;28;20044;-82
2021/11/20 01:23:17;;;;;;;14.35;5.97;;;4.00;99.90;;;;;;5023389;28;20562;-82
2021/11/20 01:25:44;;;;;;;15.15;5.65;;;4.00;99.90;;;;;;5016823;28;20086;-81
2021/11/20 01:28:11;;;;;;;10.52;5.07;;;4.00;99.90;;;;;;5023864;28;20497;-82
2021/11/20 01:30:36;;;;;;;14.70;5.70;;;4.00;99.90;;;;;;5025926;28;20048;-81
2021/11/20 01:33:03;;;;;;;13.75;6.32;;;4.00;99.90;;;;;;5027039;28;20112;-81
2021/11/20 01:35:29;;;;;;;15.85;6.88;;;4.00;99.90;;;;;;5038468;28;20437;-81
2021/11/20 01:37:55;;;;;;;12.43;5.55;;;4.00;99.90;;;;;;5026261;28;20021;-82
2021/11/20 01:40:23;;;;;;;11.68;5.47;;;4.00;99.90;;;;;;5041150;28;20383;-82
2021/11/20 01:42:49;;;;;;;12.38;5.85;;;4.00;99.90;;;;;;5019574;28;20108;-81
2021/11/20 01:45:37;;;;;;;9.73;5.30;;;4.00;99.90;;;;;;5026126;28;20321;-82
2021/11/20 01:48:37;;;;;;;11.20;4.95;;;4.00;99.90;;;;;;5028445;28;20079;-80
2021/11/20 01:51:11;;;;;;;11.30;5.22;;;4.00;99.90;;;;;;5029716;28;20477;-81
2021/11/20 01:54:08;;;;;;;13.35;6.05;;;4.00;99.90;;;;;;5035857;28;20021;-81
2021/11/20 01:56:41;;;;;;;16.08;6.82;;;4.00;99.90;;;;;;5008334;28;20037;-81
2021/11/20 01:59:27;;;;;;;11.80;5.90;;;4.00;99.90;;;;;;5023716;28;20107;-81
2021/11/20 02:02:24;;;;;;;13.45;5.20;;;4.00;99.90;;;;;;5016269;28;20402;-81
2021/11/20 02:05:01;;;;;;;10.10;5.13;;;4.00;99.90;;;;;;5025748;28;20053;-81
2021/11/20 02:07:55;;;;;;;11.77;5.53;;;4.00;99.90;;;;;;5046260;28;20091;-81
2021/11/20 02:10:33;;;;;;;13.15;6.15;;;4.10;99.90;;;;;;5029115;28;20381;-81
2021/11/20 02:13:09;;;;;;;12.10;4.72;;;4.00;99.90;;;;;;5024971;28;20159;-81
2021/11/20 02:15:53;;;;;;;10.32;4.57;;;4.10;99.90;;;;;;5029871;28;20043;-81
2021/11/20 02:18:22;;;;;;;10.55;5.43;;;4.10;99.90;;;;;;5033280;28;20025;-81
2021/11/20 02:20:58;;;;;;;12.13;5.50;;;4.10;99.90;;;;;;5031912;28;20036;-82
2021/11/20 02:23:23;;;;;;;8.90;5.18;;;4.10;99.90;;;;;;5025789;28;20040;-81
2021/11/20 02:25:49;;;;;;;10.82;4.80;;;4.10;99.90;;;;;;5029494;28;20029;-82
2021/11/20 02:28:15;;;;;;;12.20;4.75;;;4.10;99.90;;;;;;5022035;28;20038;-81
2021/11/20 02:30:43;;;;;;;12.20;5.15;;;4.10;99.90;;;;;;5019628;28;20030;-81
2021/11/20 02:33:14;;;;;;;11.48;5.20;;;4.10;99.90;;;;;;5023550;28;20103;-81
2021/11/20 02:35:47;;;;;;;14.38;5.60;;;4.00;99.90;;;;;;5031274;28;20033;-82
2021/11/20 02:38:17;;;;;;;11.13;5.35;;;4.10;99.90;;;;;;5014758;28;20037;-82
2021/11/20 02:40:44;;;;;;;20.10;5.70;;;4.10;99.90;;;;;;5026818;28;20385;-82
2021/11/20 02:43:11;;;;;;;10.85;4.78;;;4.10;99.90;;;;;;5033505;28;20017;-82
2021/11/20 02:45:45;;;;;;;10.55;5.60;;;4.10;99.90;;;;;;5031719;28;20079;-82
2021/11/20 02:48:12;;;;;;;14.00;5.45;;;4.10;99.90;;;;;;5016592;28;20026;-82
2021/11/20 02:50:57;;;;;;;13.18;5.57;;;4.10;99.90;;;;;;5030279;28;20026;-81
2021/11/20 02:53:33;;;;;;;11.05;5.35;;;4.00;99.90;;;;;;5024286;28;20090;-81
2021/11/20 02:56:00;;;;;;;10.35;4.95;;;4.00;99.90;;;;;;5016144;28;20394;-81
2021/11/20 02:58:28;;;;;;;12.52;5.40;;;4.00;99.90;;;;;;5020338;28;20037;-81
2021/11/20 03:01:04;;;;;;;11.15;5.20;;;4.00;99.90;;;;;;5033631;28;20351;-81
2021/11/20 03:03:30;;;;;;;12.77;5.45;;;4.00;99.90;;;;;;5018269;28;20717;-81
2021/11/20 03:05:56;;;;;;;11.48;5.57;;;4.10;99.90;;;;;;5015751;28;20029;-81
2021/11/20 03:08:22;;;;;;;10.77;5.78;;;4.10;99.90;;;;;;5020508;28;20034;-82
2021/11/20 03:10:48;;;;;;;15.65;5.75;;;4.10;99.90;;;;;;5025003;28;20025;-81
2021/11/20 03:13:15;;;;;;;14.68;5.90;;;4.10;99.90;;;;;;5022645;28;20029;-81
2021/11/20 03:15:41;;;;;;;12.48;5.93;;;4.10;99.90;;;;;;5022742;28;20018;-81
2021/11/20 03:18:07;;;;;;;12.10;5.38;;;4.10;99.90;;;;;;5030192;28;20137;-81
2021/11/20 03:20:33;;;;;;;13.40;5.80;;;4.10;99.90;;;;;;5015716;28;20556;-81
2021/11/20 03:23:24;;;;;;;13.38;5.75;;;4.20;99.90;;;;;;5015512;28;20032;-82
2021/11/20 03:25:50;;;;;;;11.00;5.05;;;4.20;99.90;;;;;;5016600;28;20103;-81
2021/11/20 03:28:16;;;;;;;13.90;5.30;;;4.10;99.90;;;;;;5017323;28;20041;-81
2021/11/20 03:30:43;;;;;;;14.73;6.53;;;4.20;99.90;;;;;;5017266;28;20030;-82
2021/11/20 03:33:09;;;;;;;9.65;4.70;;;4.20;99.90;;;;;;5017987;28;20026;-81
2021/11/20 03:35:35;;;;;;;13.02;6.18;;;4.20;99.90;;;;;;5018995;28;20033;-81
2021/11/20 03:38:02;;;;;;;12.82;6.20;;;4.20;99.90;;;;;;5018398;28;20037;-81
2021/11/20 03:40:28;;;;;;;14.80;6.45;;;4.20;99.90;;;;;;5018257;28;20332;-81
2021/11/20 03:42:54;;;;;;;11.25;4.80;;;4.20;99.90;;;;;;5022076;28;20044;-81
2021/11/20 03:45:24;;;;;;;14.13;5.70;;;4.20;99.90;;;;;;5033776;28;20033;-81
2021/11/20 03:47:50;;;;;;;12.80;5.20;;;4.20;99.90;;;;;;5024605;28;20037;-81
2021/11/20 03:50:17;;;;;;;15.98;6.32;;;4.20;99.90;;;;;;5028617;28;20072;-81
2021/11/20 03:52:44;;;;;;;10.75;5.60;;;4.30;99.90;;;;;;5031903;28;20091;-81
2021/11/20 03:55:13;;;;;;;11.70;6.15;;;4.30;99.90;;;;;;5012199;28;20036;-81
2021/11/20 03:57:39;;;;;;;13.40;5.18;;;4.30;99.90;;;;;;5031589;28;20485;-81
2021/11/20 04:00:08;;;;;;;9.98;5.18;;;4.30;99.90;;;;;;5014679;28;20044;-81
2021/11/20 04:02:34;;;;;;;11.13;5.57;;;4.30;99.90;;;;;;5016222;28;20038;-81
2021/11/20 04:04:59;;;;;;;12.30;6.57;;;4.30;99.90;;;;;;5046645;28;20259;-81
2021/11/20 04:07:25;;;;;;;11.32;5.80;;;4.30;99.90;;;;;;5018796;28;20457;-82
2021/11/20 04:09:50;;;;;;;14.35;5.78;;;4.30;99.90;;;;;;5014351;28;20026;-82
2021/11/20 04:12:16;;;;;;;16.08;5.88;;;4.30;99.90;;;;;;5014639;28;20033;-81
2021/11/20 04:14:42;;;;;;;13.68;6.63;;;4.20;99.90;;;;;;5030643;28;20072;-81
2021/11/20 04:17:08;;;;;;;13.00;5.97;;;4.30;99.90;;;;;;5030423;28;20033;-81
2021/11/20 04:19:33;;;;;;;11.65;5.80;;;4.30;99.90;;;;;;5021142;28;20026;-82
2021/11/20 04:21:59;;;;;;;10.25;5.30;;;4.20;99.90;;;;;;5018916;28;20478;-82
2021/11/20 04:24:25;;;;;;;11.48;5.32;;;4.30;99.90;;;;;;5016286;28;20247;-81
2021/11/20 04:26:51;;;;;;;17.50;6.05;;;4.20;99.90;;;;;;5015328;28;20029;-81
2021/11/20 04:29:18;;;;;;;16.40;6.50;;;4.30;99.90;;;;;;5013037;28;20459;-82
2021/11/20 04:31:44;;;;;;;12.52;6.30;;;4.30;99.90;;;;;;5014606;28;20033;-81
2021/11/20 04:34:09;;;;;;;11.43;5.70;;;4.30;99.90;;;;;;5017801;28;20025;-82
2021/11/20 04:36:35;;;;;;;12.20;5.30;;;4.30;99.90;;;;;;5015280;28;20038;-82
2021/11/20 04:39:03;;;;;;;10.65;5.80;;;4.30;99.90;;;;;;5018231;28;20036;-82
2021/11/20 04:41:29;;;;;;;13.20;5.53;;;4.30;99.90;;;;;;5017676;28;20044;-81
2021/11/20 04:43:55;;;;;;;14.68;6.00;;;4.30;99.90;;;;;;5035228;28;20564;-81
2021/11/20 04:46:23;;;;;;;10.32;5.32;;;4.20;99.90;;;;;;5014395;28;20056;-81
2021/11/20 04:48:48;;;;;;;11.45;5.82;;;4.30;99.90;;;;;;5019267;28;20413;-82
2021/11/20 04:51:15;;;;;;;13.65;5.53;;;4.30;99.90;;;;;;5030184;28;20029;-82
2021/11/20 04:53:43;;;;;;;11.13;5.93;;;4.30;99.90;;;;;;5028250;28;20722;-82
2021/11/20 04:56:11;;;;;;;13.02;6.38;;;4.30;99.90;;;;;;5030123;28;20025;-81
2021/11/20 04:58:37;;;;;;;8.77;5.40;;;4.30;99.90;;;;;;5029488;28;20044;-81
2021/11/20 05:01:05;;;;;;;12.05;5.65;;;4.30;99.90;;;;;;5013428;28;20029;-81
2021/11/20 05:03:31;;;;;;;11.07;5.50;;;4.30;99.90;;;;;;5016443;28;20046;-81
2021/11/20 05:05:58;;;;;;;13.57;5.60;;;4.30;99.90;;;;;;5016008;28;20123;-81
2021/11/20 05:08:24;;;;;;;12.27;6.47;;;4.30;99.90;;;;;;5011272;28;20120;-81
2021/11/20 05:10:53;;;;;;;16.52;6.40;;;4.30;99.90;;;;;;5010092;28;21337;-83
2021/11/20 05:13:20;;;;;;;13.98;5.85;;;4.30;99.90;;;;;;5016181;28;20146;-82
2021/11/20 05:15:48;;;;;;;12.18;5.10;;;4.30;99.90;;;;;;5027996;28;20030;-82
2021/11/20 05:18:15;;;;;;;11.85;6.53;;;4.30;99.90;;;;;;5012824;28;21635;-82
2021/11/20 05:20:41;;;;;;;13.40;7.28;;;4.30;99.90;;;;;;5011690;28;20037;-83
2021/11/20 05:23:09;;;;;;;14.45;6.13;;;4.30;99.90;;;;;;5013049;28;20033;-83
2021/11/20 05:25:34;;;;;;;14.75;5.72;;;4.30;99.90;;;;;;5012846;28;20617;-82
2021/11/20 05:28:00;;;;;;;11.30;5.38;;;4.30;99.90;;;;;;5015402;28;20121;-83
2021/11/20 05:30:34;;;;;;;11.00;4.72;;;4.30;99.90;;;;;;5021885;28;20026;-83
2021/11/20 05:33:04;;;;;;;10.63;4.95;;;4.30;99.90;;;;;;5012955;28;20028;-83
2021/11/20 05:35:31;;;;;;;11.93;5.03;;;4.30;99.90;;;;;;5014193;28;20144;-83
2021/11/20 05:37:57;;;;;;;10.63;5.43;;;4.30;99.90;;;;;;5014526;28;20052;-83
2021/11/20 05:40:23;;;;;;;12.20;6.03;;;4.30;99.90;;;;;;5017021;28;21051;-83
2021/11/20 05:42:52;;;;;;;14.35;5.47;;;4.30;99.90;;;;;;5017951;28;20112;-82
2021/11/20 05:45:20;;;;;;;11.60;6.10;;;4.30;99.90;;;;;;5016267;28;20044;-82
2021/11/20 05:47:47;;;;;;;12.32;5.30;;;4.30;99.90;;;;;;5014092;28;20033;-82
2021/11/20 05:50:14;;;;;;;10.88;5.35;;;4.30;99.90;;;;;;5015791;28;20214;-82
2021/11/20 05:52:39;;;;;;;12.43;6.03;;;4.30;99.90;;;;;;5016678;28;20026;-82
2021/11/20 05:55:06;;;;;;;10.48;6.13;;;4.30;99.90;;;;;;5017004;28;20056;-82
2021/11/20 05:57:32;;;;;;;12.65;5.88;;;4.30;99.90;;;;;;5017825;28;20036;-82
2021/11/20 05:59:58;;;;;;;14.15;6.35;;;4.30;99.90;;;;;;5033228;28;20037;-82
2021/11/20 06:02:24;;;;;;;13.40;5.00;;;4.30;99.90;;;;;;5016925;28;20047;-83
2021/11/20 06:04:50;;;;;;;13.38;6.28;;;4.30;99.90;;;;;;5019383;28;20091;-82
2021/11/20 06:07:16;;;;;;;12.00;6.18;;;4.30;99.90;;;;;;5015527;28;20575;-82
2021/11/20 06:09:42;;;;;;;11.70;5.78;;;4.30;99.90;;;;;;5030181;28;20124;-82
2021/11/20 06:12:10;;;;;;;15.10;5.97;;;4.30;99.90;;;;;;5027542;28;20056;-82
2021/11/20 06:14:36;;;;;;;12.38;6.30;;;4.30;99.90;;;;;;5016040;28;20128;-82
2021/11/20 06:17:02;;;;;;;13.00;4.93;;;4.30;99.90;;;;;;5016488;28;20399;-82
2021/11/20 06:19:28;;;;;;;17.73;7.00;;;4.30;99.90;;;;;;5014230;28;20025;-82
2021/11/20 06:21:55;;;;;;;10.70;5.90;;;4.30;99.90;;;;;;5016475;28;20037;-82
2021/11/20 06:24:21;;;;;;;14.10;5.32;;;4.30;99.90;;;;;;5015576;28;20030;-82
2021/11/20 06:26:47;;;;;;;11.25;6.03;;;4.30;99.90;;;;;;5019030;28;20074;-82
2021/11/20 06:29:16;;;;;;;12.38;5.90;;;4.30;99.90;;;;;;5015448;28;20485;-82
2021/11/20 06:31:42;;;;;;;11.65;5.55;;;4.30;99.90;;;;;;5026282;28;20108;-82
2021/11/20 06:34:08;;;;;;;12.07;5.65;;;4.30;99.90;;;;;;5016545;28;20167;-82
2021/11/20 06:36:34;;;;;;;10.65;5.18;;;4.30;99.90;;;;;;5024772;28;20063;-82
2021/11/20 06:39:00;;;;;;;13.23;5.15;;;4.30;99.90;;;;;;5017770;28;20081;-82
2021/11/20 06:41:27;;;;;;;10.15;5.75;;;4.30;99.90;;;;;;5016948;28;20034;-82
2021/11/20 06:43:53;;;;;;;13.65;6.18;;;4.40;99.90;;;;;;5035441;28;20099;-82
2021/11/20 06:46:19;;;;;;;12.15;5.68;;;4.40;99.90;;;;;;5017973;28;20034;-82
2021/11/20 06:48:45;;;;;;;11.48;5.00;;;4.40;99.90;;;;;;5017411;28;20087;-82
2021/11/20 06:51:14;;;;;;;12.00;5.43;;;4.30;99.90;;;;;;5017528;28;20029;-82
2021/11/20 06:53:42;;;;;;;11.30;5.35;;;4.40;99.90;;;;;;5015000;28;20398;-82
2021/11/20 06:56:14;;;;;;;9.55;5.35;;;4.40;99.90;;;;;;5017586;28;20061;-82
2021/11/20 07:01:16;;;;;;;13.45;5.75;;;4.40;99.90;;;;;;5016275;28;20124;-82
2021/11/20 07:03:49;;;;;;;12.23;5.40;;;4.40;99.90;;;;;;5016563;28;20505;-82
2021/11/20 07:06:17;;;;;;;10.00;5.43;;;4.40;99.90;;;;;;5031175;28;20120;-80
2021/11/20 07:08:43;;;;;;;10.27;5.03;;;4.40;99.90;;;;;;5015672;28;20210;-81
2021/11/20 07:11:10;;;;;;;10.98;5.65;;;4.30;99.90;;;;;;5016671;28;20040;-81
2021/11/20 07:13:36;;;;;;;11.82;5.47;;;4.40;99.90;;;;;;5015223;28;20557;-81
2021/11/20 07:16:03;;;;;;;12.93;6.57;;;4.40;99.90;;;;;;5015546;28;20027;-81
2021/11/20 07:18:28;;;;;;;10.18;5.05;;;4.40;99.90;;;;;;5013908;28;20492;-81
2021/11/20 07:20:54;;;;;;;10.30;4.88;;;4.40;99.90;;;;;;5018564;28;20083;-81
2021/11/20 07:23:21;;;;;;;7.93;4.65;;;4.40;99.90;;;;;;5014020;28;20516;-81
2021/11/20 07:25:47;;;;;;;14.27;6.15;;;4.40;99.90;;;;;;5014813;28;20045;-82
2021/11/20 07:28:13;;;;;;;10.98;5.72;;;4.40;99.90;;;;;;5014821;28;20025;-82
2021/11/20 07:30:40;;;;;;;11.88;5.20;;;4.40;99.90;;;;;;5015555;28;20029;-82
2021/11/20 07:33:09;;;;;;;9.68;5.25;;;4.40;99.90;;;;;;5013772;28;20025;-82
2021/11/20 07:35:50;;;;;;;13.35;6.13;;;4.40;99.90;;;;;;5015848;28;20030;-82
2021/11/20 07:38:20;;;;;;;10.77;5.57;;;4.50;99.90;;;;;;5013388;28;20109;-82
2021/11/20 07:40:46;;;;;;;12.18;5.30;;;4.40;99.90;;;;;;5014680;28;20129;-82
2021/11/20 07:43:16;;;;;;;10.15;5.63;;;4.50;99.90;;;;;;5017174;28;20029;-82
2021/11/20 07:45:42;;;;;;;11.07;5.63;;;4.50;99.90;;;;;;5015894;28;20160;-82
2021/11/20 07:48:18;;;;;;;11.35;5.55;;;4.50;99.90;;;;;;5030617;28;20225;-82
2021/11/20 07:50:46;;;;;;;8.68;5.55;;;4.50;99.90;;;;;;5014941;28;20025;-82
2021/11/20 07:53:12;;;;;;;11.05;5.43;;;4.50;99.90;;;;;;5017138;28;20735;-82
2021/11/20 07:55:38;;;;;;;10.13;5.95;;;4.50;99.90;;;;;;5032499;28;20075;-82
2021/11/20 07:58:05;;;;;;;8.55;4.63;;;4.60;99.90;;;;;;5013553;28;20038;-82
2021/11/20 08:00:32;;;;;;;11.50;5.20;;;4.60;99.90;;;;;;5027615;28;20037;-82
2021/11/20 08:02:58;;;;;;;10.90;5.68;;;4.60;99.90;;;;;;5013398;28;20484;-82
2021/11/20 08:05:27;;;;;;;11.00;5.82;;;4.60;99.90;;;;;;5017537;28;20046;-82
2021/11/20 08:07:56;;;;;;;;;;;4.60;99.90;;;;;;5013298;28;20041;-82
2021/11/20 08:10:24;;;;;;;9.35;5.47;;;4.60;99.90;;;;;;5016012;28;19936;-82
2021/11/20 08:12:50;;;;;;;10.48;5.82;;;4.60;99.90;;;;;;5014169;28;20103;-82
2021/11/20 08:15:16;;;;;;;12.18;6.18;;;4.70;99.90;;;;;;5028541;28;20041;-82
2021/11/20 08:17:43;;;;;;;11.82;5.93;;;4.70;99.90;;;;;;5014331;28;20029;-82
2021/11/20 08:20:12;;;;;;;15.20;6.38;;;4.70;99.90;;;;;;5011124;28;20044;-82
2021/11/20 08:22:38;;;;;;;16.00;5.78;;;4.70;99.90;;;;;;5010855;28;20028;-83
2021/11/20 08:25:06;;;;;;;10.85;5.47;;;4.70;99.90;;;;;;5014940;28;20048;-83
2021/11/20 08:27:32;;;;;;;10.68;6.28;;;4.70;99.90;;;;;;5014167;28;21245;-83
2021/11/20 08:29:58;;;;;;;10.60;5.75;;;4.70;99.90;;;;;;5014785;28;20044;-83
2021/11/20 08:32:24;;;;;;;11.70;5.90;;;4.70;99.90;;;;;;5014131;28;20030;-83
2021/11/20 08:34:50;;;;;;;8.82;5.15;;;4.70;99.90;;;;;;5017343;28;20034;-83
2021/11/20 08:37:17;;;;;;;8.70;5.20;;;4.80;99.90;;;;;;5013619;28;20460;-83
2021/11/20 08:39:42;;;;;;;7.60;4.47;;;4.80;99.90;;;;;;5021192;28;20030;-83
2021/11/20 08:42:09;;;;;;;9.35;4.97;;;4.80;99.90;;;;;;5015313;28;20038;-83
2021/11/20 08:44:34;;;;;;;12.88;6.10;;;4.80;99.90;;;;;;5014075;28;20040;-83
2021/11/20 08:47:03;;;;;;;11.18;6.05;;;4.80;99.90;;;;;;5015261;28;21359;-83
2021/11/20 08:49:29;;;;;;;12.40;5.60;;;4.80;99.90;;;;;;5011777;28;20657;-83
2021/11/20 08:51:55;;;;;;;10.60;5.63;;;4.90;99.90;;;;;;5012795;28;20044;-83
2021/11/20 08:54:21;;;;;;;11.77;5.75;;;4.90;99.90;;;;;;5026535;28;20478;-83
2021/11/20 08:56:49;;;;;;;9.82;5.53;;;4.90;99.90;;;;;;5025337;28;20029;-83
2021/11/20 08:59:20;;;;;;;9.95;6.25;;;4.90;99.90;;;;;;5029066;28;20037;-83
2021/11/20 09:02:20;;;;;;;10.38;5.40;;;4.90;99.90;;;;;;5016794;28;20037;-83
2021/11/20 09:04:45;;;;;;;14.55;5.57;;;4.90;99.90;;;;;;5023538;28;20045;-83
2021/11/20 09:07:33;;;;;;;12.88;6.55;;;5.00;99.90;;;;;;5041993;28;20335;-83
2021/11/20 09:10:30;;;;;;;11.10;6.53;;;5.00;99.90;;;;;;5045154;28;20417;-83
2021/11/20 09:12:58;;;;;;;10.00;6.30;;;5.00;99.90;;;;;;5020510;28;20292;-83
2021/11/20 09:15:30;;;;;;;11.73;6.40;;;5.10;99.90;;;;;;5041630;28;20026;-83
2021/11/20 09:17:55;;;;;;;15.82;6.85;;;5.00;99.90;;;;;;5019841;28;20056;-83
2021/11/20 09:20:22;;;;;;;12.57;6.35;;;5.10;99.90;;;;;;5036751;28;20073;-83
2021/11/20 09:22:48;;;;;;;11.80;6.43;;;5.10;99.90;;;;;;5016210;28;20041;-83
2021/11/20 09:25:16;;;;;;;15.23;6.28;;;5.20;99.90;;;;;;5030070;28;20037;-83
2021/11/20 09:27:42;;;;;;;13.80;7.47;;;5.20;99.90;;;;;;5015918;28;20057;-82
2021/11/20 09:30:13;;;;;;;12.07;6.97;;;5.20;99.90;;;;;;5019678;28;20574;-82
2021/11/20 09:32:39;;;;;;;14.20;6.82;;;5.30;99.90;;;;;;5021444;28;20053;-82
2021/11/20 09:35:05;;;;;;;13.18;6.55;;;5.30;99.90;;;;;;5023427;28;20382;-82
2021/11/20 09:37:31;;;;;;;11.52;6.38;;;5.30;99.90;;;;;;5037970;28;20033;-82
2021/11/20 09:39:57;;;;;;;13.98;7.53;;;5.30;99.90;;;;;;5023883;28;20647;-80
2021/11/20 09:42:54;;;;;;;16.25;7.25;;;5.30;99.90;;;;;;5012331;28;21247;-81
2021/11/20 09:45:29;;;;;;;15.32;6.35;;;5.40;99.90;;;;;;5011875;28;20041;-81
2021/11/20 09:48:19;;;;;;;12.57;6.80;;;5.40;99.90;;;;;;5025555;28;20515;-81
2021/11/20 09:50:50;;;;;;;12.52;6.82;;;5.40;99.90;;;;;;5043596;28;20550;-81
2021/11/20 09:53:16;;;;;;;13.77;6.90;;;5.50;99.90;;;;;;5023251;28;20022;-81
2021/11/20 09:55:51;;;;;;;14.70;7.53;;;5.50;99.90;;;;;;5027053;28;20037;-81
2021/11/20 09:58:27;;;;;;;15.02;7.30;;;5.60;99.90;;;;;;5031046;28;20512;-81
2021/11/20 10:01:22;;;;;;;15.57;7.45;;;5.60;99.90;;;;;;5045949;28;20041;-81
2021/11/20 10:04:05;;;;;;;12.65;7.13;;;5.60;99.90;;;;;;5025780;28;20064;-82
2021/11/20 10:06:39;;;;;;;13.20;6.95;;;5.70;99.90;;;;;;5016724;28;20561;-81
2021/11/20 10:09:20;;;;;;;13.55;7.10;;;5.70;99.90;;;;;;5012427;28;20033;-81
2021/11/20 10:11:52;;;;;;;10.95;5.97;;;5.60;99.90;;;;;;5031062;28;20030;-81
2021/11/20 10:14:21;;;;;;;12.93;7.45;;;5.60;99.90;;;;;;5018463;28;20389;-82
2021/11/20 10:16:51;;;;;;;14.93;8.13;;;5.70;99.90;;;;;;5027413;28;20026;-81
2021/11/20 10:19:35;;;;;;;16.25;7.50;;;5.70;99.90;;;;;;5011987;28;20036;-80
2021/11/20 10:22:01;;;;;;;17.50;8.52;;;5.80;99.90;;;;;;5032315;28;20044;-81
2021/11/20 10:24:39;;;;;;;16.00;7.30;;;5.80;99.90;;;;;;5017311;28;20069;-81
2021/11/20 10:27:29;;;;;;;18.35;8.63;;;5.80;99.90;;;;;;5022942;28;20040;-81
2021/11/20 10:30:28;;;;;;;16.90;7.72;;;5.80;99.90;;;;;;5029876;28;20041;-81
2021/11/20 10:33:00;;;;;;;16.40;8.40;;;5.90;99.90;;;;;;5034666;28;20050;-82
2021/11/20 10:35:28;;;;;;;18.63;7.47;;;5.90;99.90;;;;;;5018052;28;20026;-81
2021/11/20 10:37:59;;;;;;;14.95;8.43;;;6.00;99.90;;;;;;5024036;28;20151;-81
2021/11/20 10:40:39;;;;;;;16.17;8.90;;;6.00;99.90;;;;;;5035406;28;20044;-81
2021/11/20 10:43:16;;;;;;;18.80;7.57;;;6.00;99.90;;;;;;5020931;28;20033;-81
2021/11/20 10:46:06;;;;;;;34.22;25.90;;;6.10;99.90;;;;;;5024064;28;20064;-81
2021/11/20 10:48:46;;;;;;;12.40;7.38;;;6.10;99.90;;;;;;5025083;28;20297;-81
2021/11/20 10:51:22;;;;;;;12.40;6.55;;;6.10;99.90;;;;;;5031132;28;20075;-81
2021/11/20 10:54:29;;;;;;;9.73;5.63;;;6.20;99.90;;;;;;5022610;28;20072;-82
2021/11/20 10:57:13;;;;;;;10.57;5.65;;;6.20;99.90;;;;;;5003145;28;20071;-82
2021/11/20 11:00:03;;;;;;;14.55;8.15;;;6.30;99.90;;;;;;5026467;28;20541;-81
2021/11/20 11:02:54;;;;;;;10.48;5.55;;;6.30;99.90;;;;;;5023163;28;20056;-81
2021/11/20 11:05:46;;;;;;;10.13;6.05;;;6.30;99.90;;;;;;5034390;28;20053;-81
2021/11/20 11:08:27;;;;;;;7.80;5.38;;;6.40;99.90;;;;;;5029925;28;20422;-81
2021/11/20 11:11:10;;;;;;;10.77;4.55;;;6.50;99.90;;;;;;5029979;28;20018;-82
2021/11/20 11:13:54;;;;;;;12.32;5.47;;;6.50;99.90;;;;;;5035968;28;20502;-81
2021/11/20 11:16:40;;;;;;;9.50;5.32;;;6.50;99.90;;;;;;5018603;28;20089;-81
2021/11/20 11:19:32;;;;;;;11.90;5.47;;;6.50;99.90;;;;;;5030822;28;20124;-81
2021/11/20 11:22:12;;;;;;;10.18;4.85;;;6.50;99.90;;;;;;5006132;28;20049;-82
2021/11/20 11:24:58;;;;;;;9.27;4.88;;;6.50;99.90;;;;;;5015549;28;20026;-81
2021/11/20 11:27:27;;;;;;;10.70;6.47;;;6.50;99.90;;;;;;5042648;28;20581;-81
2021/11/20 11:30:32;;;;;;;17.10;7.70;;;6.60;99.90;;;;;;5020278;28;21771;-82
2021/11/20 11:32:58;;;;;;;12.60;11.40;;;6.60;99.90;;;;;;4998764;28;20186;-81
2021/11/20 11:35:51;;;;;;;6.75;6.15;;;6.60;99.90;;;;;;5011076;28;20021;-81
2021/11/20 11:38:54;;;;;;;10.75;7.28;;;6.70;99.90;;;;;;5011967;28;20152;-82
2021/11/20 11:41:39;;;;;;;5.95;3.67;;;6.70;99.90;;;;;;5011261;28;20068;-81
2021/11/20 11:44:07;;;;;;;7.45;3.97;;;6.60;99.90;;;;;;5012672;28;20044;-82
2021/11/20 11:46:47;;;;;;;7.60;4.35;;;6.70;99.90;;;;;;5011381;28;20116;-82
2021/11/20 11:49:32;;;;;;;4.32;3.22;;;6.70;99.90;;;;;;5017290;28;20032;-82
2021/11/20 11:52:27;;;;;;;10.93;8.50;;;6.60;99.90;;;;;;5016213;28;20117;-82
2021/11/20 11:55:42;;;;;;;15.13;7.22;;;6.70;99.90;;;;;;5026756;28;20068;-81
2021/11/20 11:58:17;;;;;;;5.93;4.07;;;6.70;99.90;;;;;;5010880;28;20112;-81
2021/11/20 12:00:48;;;;;;;4.72;4.20;;;6.70;99.90;;;;;;5009999;28;22143;-81
2021/11/20 12:03:27;;;;;;;6.45;3.97;;;6.80;99.90;;;;;;5015791;28;20104;-81
2021/11/20 12:06:13;;;;;;;6.90;3.80;;;6.80;99.90;;;;;;5012627;28;20253;-81
2021/11/20 12:08:52;;;;;;;7.97;4.90;;;6.80;99.90;;;;;;5011121;28;20030;-81
2021/11/20 12:11:32;;;;;;;9.77;5.82;;;6.80;99.90;;;;;;5011855;28;20022;-81
2021/11/20 12:14:14;;;;;;;7.70;3.78;;;6.80;99.90;;;;;;5016301;28;20039;-80
2021/11/20 12:16:56;;;;;;;6.40;4.20;;;6.80;99.90;;;;;;5012034;28;20029;-80
2021/11/20 12:19:51;;;;;;;7.97;4.20;;;6.80;99.90;;;;;;5012183;28;20109;-81
2021/11/20 12:23:01;;;;;;;8.63;4.10;;;6.80;99.90;;;;;;5030027;28;20486;-80
2021/11/20 12:25:41;;;;;;;6.97;4.38;;;6.80;99.90;;;;;;5007896;28;20127;-81
2021/11/20 12:28:12;;;;;;;10.43;4.43;;;6.80;99.90;;;;;;5013342;28;21548;-80
2021/11/20 12:31:03;;;;;;;8.77;4.70;;;6.80;99.90;;;;;;5012796;28;20030;-81
2021/11/20 12:34:24;;;;;;;9.23;4.85;;;6.90;99.90;;;;;;5011658;28;20429;-81
2021/11/20 12:36:58;;;;;;;11.63;5.60;;;6.90;99.90;;;;;;4977704;28;20566;-81
2021/11/20 12:39:32;;;;;;;8.90;5.25;;;6.90;99.90;;;;;;5010607;28;20057;-80
2021/11/20 12:42:36;;;;;;;8.18;4.53;;;6.90;99.90;;;;;;5013786;28;20029;-80
2021/11/20 12:45:20;;;;;;;5.78;4.07;;;6.90;99.90;;;;;;4988452;28;20121;-80
2021/11/20 12:48:14;;;;;;;9.02;4.05;;;6.90;99.90;;;;;;5013106;28;20040;-81
2021/11/20 12:51:00;;;;;;;5.95;4.30;;;6.80;99.90;;;;;;5037214;28;20021;-79
2021/11/20 12:53:36;;;;;;;9.70;7.55;;;6.80;99.90;;;;;;5018676;28;20085;-80
2021/11/20 12:56:17;;;;;;;5.65;4.07;;;6.80;99.90;;;;;;5012685;28;20033;-80
2021/11/20 12:59:15;;;;;;;7.00;4.03;;;6.80;99.90;;;;;;5031555;28;20288;-80
2021/11/20 13:01:44;;;;;;;;;;;6.90;99.90;;;;;;5016907;28;20037;-81
2021/11/20 13:04:43;;;;;;;4.20;3.13;;;6.80;99.90;;;;;;5024491;28;19918;-81
2021/11/20 13:07:24;;;;;;;8.05;4.45;;;6.80;99.90;;;;;;5010550;28;20069;-80
2021/11/20 13:10:18;;;;;;;12.68;6.40;;;6.80;99.90;;;;;;5012330;28;20052;-80
2021/11/20 13:12:48;;;;;;;6.90;4.50;;;6.80;99.90;;;;;;5011234;28;20475;-80
2021/11/20 13:15:32;;;;;;;7.28;4.28;;;6.80;99.90;;;;;;5012254;28;20029;-81
2021/11/20 13:18:07;;;;;;;9.52;5.68;;;6.80;99.90;;;;;;5010162;28;20032;-80
2021/11/20 13:20:39;;;;;;;10.82;6.88;;;6.80;99.90;;;;;;5029628;28;20382;-80